<?xml version="1.0" encoding="UTF-8" standalone="no" ?><gpx xmlns="http://www.topografix.com/GPX/1/1" xmlns:gpxx="http://www.garmin.com/xmlschemas/GpxExtensions/v3" xmlns:wptx1="http://www.garmin.com/xmlschemas/WaypointExtension/v1" xmlns:gpxtpx="http://www.garmin.com/xmlschemas/TrackPointExtension/v1" creator="GuideVTT.com" version="1.1" xmlns:xsi="http://www.w3.org/2001/XMLSchema-instance" xsi:schemaLocation="http://www.topografix.com/GPX/1/1 http://www.topografix.com/GPX/1/1/gpx.xsd http://www.garmin.com/xmlschemas/GpxExtensions/v3 http://www8.garmin.com/xmlschemas/GpxExtensionsv3.xsd http://www.garmin.com/xmlschemas/WaypointExtension/v1 http://www8.garmin.com/xmlschemas/WaypointExtensionv1.xsd http://www.garmin.com/xmlschemas/TrackPointExtension/v1 http://www.garmin.com/xmlschemas/TrackPointExtensionv1.xsd">
<metadata><link href="http://www.garmin.com"><text>Garmin International</text></link><time>2013-06-22T15:13:50Z</time></metadata>
<trk><name>rp2016_12.gpx</name><extensions><gpxx:TrackExtension><gpxx:DisplayColor>Cyan</gpxx:DisplayColor></gpxx:TrackExtension></extensions><trkseg>
<trkpt lat="46.2067" lon="7.43938"><ele>1520.8</ele><time>2016-06-07T15:46:14Z</time></trkpt>
<trkpt lat="46.20678" lon="7.43946"><ele>1530</ele><time>2016-06-07T15:46:22Z</time></trkpt>
<trkpt lat="46.20677" lon="7.43949"><ele>1529.8</ele><time>2016-06-07T15:46:26Z</time></trkpt>
<trkpt lat="46.20678" lon="7.43948"><ele>1533.8</ele><time>2016-06-07T15:46:29Z</time></trkpt>
<trkpt lat="46.20676" lon="7.43942"><ele>1532</ele><time>2016-06-07T15:46:33Z</time></trkpt>
<trkpt lat="46.20676" lon="7.43963"><ele>1516.4</ele><time>2016-06-07T15:46:39Z</time></trkpt>
<trkpt lat="46.20678" lon="7.43957"><ele>1529.2</ele><time>2016-06-07T15:46:45Z</time></trkpt>
<trkpt lat="46.20678" lon="7.43962"><ele>1530.2</ele><time>2016-06-07T15:46:52Z</time></trkpt>
<trkpt lat="46.20674" lon="7.43958"><ele>1532</ele><time>2016-06-07T15:47:00Z</time></trkpt>
<trkpt lat="46.20673" lon="7.43958"><ele>1532</ele><time>2016-06-07T15:47:01Z</time></trkpt>
<trkpt lat="46.20673" lon="7.43957"><ele>1532</ele><time>2016-06-07T15:47:02Z</time></trkpt>
<trkpt lat="46.2066" lon="7.43957"><ele>1530</ele><time>2016-06-07T15:47:14Z</time></trkpt>
<trkpt lat="46.20658" lon="7.43957"><ele>1530.2</ele><time>2016-06-07T15:47:16Z</time></trkpt>
<trkpt lat="46.20656" lon="7.43956"><ele>1530</ele><time>2016-06-07T15:47:20Z</time></trkpt>
<trkpt lat="46.20655" lon="7.43957"><ele>1529.6</ele><time>2016-06-07T15:47:23Z</time></trkpt>
<trkpt lat="46.20671" lon="7.43971"><ele>1508</ele><time>2016-06-07T15:47:37Z</time></trkpt>
<trkpt lat="46.20688" lon="7.43977"><ele>1501.4</ele><time>2016-06-07T15:47:45Z</time></trkpt>
<trkpt lat="46.20706" lon="7.43971"><ele>1492</ele><time>2016-06-07T15:47:52Z</time></trkpt>
<trkpt lat="46.20712" lon="7.43968"><ele>1488.4</ele><time>2016-06-07T15:47:54Z</time></trkpt>
<trkpt lat="46.20715" lon="7.43967"><ele>1487.2</ele><time>2016-06-07T15:47:55Z</time></trkpt>
<trkpt lat="46.20717" lon="7.43965"><ele>1485.8</ele><time>2016-06-07T15:47:56Z</time></trkpt>
<trkpt lat="46.20734" lon="7.43949"><ele>1474.4</ele><time>2016-06-07T15:48:04Z</time></trkpt>
<trkpt lat="46.20751" lon="7.43939"><ele>1469.8</ele><time>2016-06-07T15:48:12Z</time></trkpt>
<trkpt lat="46.20754" lon="7.43935"><ele>1468.6</ele><time>2016-06-07T15:48:14Z</time></trkpt>
<trkpt lat="46.20748" lon="7.43924"><ele>1469.4</ele><time>2016-06-07T15:48:22Z</time></trkpt>
<trkpt lat="46.2075" lon="7.43925"><ele>1472.6</ele><time>2016-06-07T15:48:31Z</time></trkpt>
<trkpt lat="46.2075" lon="7.43923"><ele>1476.6</ele><time>2016-06-07T15:48:52Z</time></trkpt>
<trkpt lat="46.2075" lon="7.43923"><ele>1476.8</ele><time>2016-06-07T15:48:54Z</time></trkpt>
<trkpt lat="46.2075" lon="7.43923"><ele>1477</ele><time>2016-06-07T15:48:56Z</time></trkpt>
<trkpt lat="46.2075" lon="7.43924"><ele>1477</ele><time>2016-06-07T15:48:59Z</time></trkpt>
<trkpt lat="46.20751" lon="7.43924"><ele>1478</ele><time>2016-06-07T15:49:09Z</time></trkpt>
<trkpt lat="46.20751" lon="7.43924"><ele>1478.6</ele><time>2016-06-07T15:49:11Z</time></trkpt>
<trkpt lat="46.20752" lon="7.43924"><ele>1479.2</ele><time>2016-06-07T15:49:13Z</time></trkpt>
<trkpt lat="46.20753" lon="7.43924"><ele>1479.6</ele><time>2016-06-07T15:49:16Z</time></trkpt>
<trkpt lat="46.20754" lon="7.43924"><ele>1481</ele><time>2016-06-07T15:49:23Z</time></trkpt>
<trkpt lat="46.20754" lon="7.43924"><ele>1481.4</ele><time>2016-06-07T15:49:25Z</time></trkpt>
<trkpt lat="46.20754" lon="7.43925"><ele>1481.6</ele><time>2016-06-07T15:49:32Z</time></trkpt>
<trkpt lat="46.20754" lon="7.43925"><ele>1481.6</ele><time>2016-06-07T15:49:35Z</time></trkpt>
<trkpt lat="46.20754" lon="7.43925"><ele>1481.8</ele><time>2016-06-07T15:49:39Z</time></trkpt>
<trkpt lat="46.20754" lon="7.43925"><ele>1481.6</ele><time>2016-06-07T15:49:45Z</time></trkpt>
<trkpt lat="46.20754" lon="7.43924"><ele>1481.8</ele><time>2016-06-07T15:49:49Z</time></trkpt>
<trkpt lat="46.20754" lon="7.43924"><ele>1481.8</ele><time>2016-06-07T15:49:53Z</time></trkpt>
<trkpt lat="46.20753" lon="7.43923"><ele>1481.8</ele><time>2016-06-07T15:49:58Z</time></trkpt>
<trkpt lat="46.20753" lon="7.43923"><ele>1481.8</ele><time>2016-06-07T15:50:00Z</time></trkpt>
<trkpt lat="46.20753" lon="7.43924"><ele>1481.4</ele><time>2016-06-07T15:50:06Z</time></trkpt>
<trkpt lat="46.20754" lon="7.43924"><ele>1481.4</ele><time>2016-06-07T15:50:10Z</time></trkpt>
<trkpt lat="46.20754" lon="7.43924"><ele>1481.8</ele><time>2016-06-07T15:50:25Z</time></trkpt>
<trkpt lat="46.20754" lon="7.43924"><ele>1482</ele><time>2016-06-07T15:50:29Z</time></trkpt>
<trkpt lat="46.20754" lon="7.43927"><ele>1481.8</ele><time>2016-06-07T15:50:44Z</time></trkpt>
<trkpt lat="46.20754" lon="7.43925"><ele>1482.2</ele><time>2016-06-07T15:51:07Z</time></trkpt>
<trkpt lat="46.20755" lon="7.43926"><ele>1481.6</ele><time>2016-06-07T15:51:23Z</time></trkpt>
<trkpt lat="46.20755" lon="7.43926"><ele>1481.6</ele><time>2016-06-07T15:51:25Z</time></trkpt>
<trkpt lat="46.20755" lon="7.43927"><ele>1481.6</ele><time>2016-06-07T15:51:28Z</time></trkpt>
<trkpt lat="46.20754" lon="7.43926"><ele>1481.4</ele><time>2016-06-07T15:51:37Z</time></trkpt>
<trkpt lat="46.20753" lon="7.43925"><ele>1481.4</ele><time>2016-06-07T15:51:41Z</time></trkpt>
<trkpt lat="46.20753" lon="7.43924"><ele>1481.4</ele><time>2016-06-07T15:51:45Z</time></trkpt>
<trkpt lat="46.20751" lon="7.43922"><ele>1481</ele><time>2016-06-07T15:52:00Z</time></trkpt>
<trkpt lat="46.20752" lon="7.43921"><ele>1480.8</ele><time>2016-06-07T15:52:05Z</time></trkpt>
<trkpt lat="46.20752" lon="7.43921"><ele>1480.8</ele><time>2016-06-07T15:52:07Z</time></trkpt>
<trkpt lat="46.20752" lon="7.43921"><ele>1480.8</ele><time>2016-06-07T15:52:08Z</time></trkpt>
<trkpt lat="46.20752" lon="7.4392"><ele>1480.8</ele><time>2016-06-07T15:52:11Z</time></trkpt>
<trkpt lat="46.20753" lon="7.43921"><ele>1481</ele><time>2016-06-07T15:52:18Z</time></trkpt>
<trkpt lat="46.20752" lon="7.43922"><ele>1481.2</ele><time>2016-06-07T15:52:26Z</time></trkpt>
<trkpt lat="46.20752" lon="7.43924"><ele>1481</ele><time>2016-06-07T15:52:38Z</time></trkpt>
<trkpt lat="46.20751" lon="7.43923"><ele>1480.8</ele><time>2016-06-07T15:52:48Z</time></trkpt>
<trkpt lat="46.20751" lon="7.43923"><ele>1480.8</ele><time>2016-06-07T15:52:49Z</time></trkpt>
<trkpt lat="46.20752" lon="7.43923"><ele>1480.6</ele><time>2016-06-07T15:52:52Z</time></trkpt>
<trkpt lat="46.20752" lon="7.43922"><ele>1480.2</ele><time>2016-06-07T15:53:01Z</time></trkpt>
<trkpt lat="46.20752" lon="7.4392"><ele>1480.6</ele><time>2016-06-07T15:53:08Z</time></trkpt>
<trkpt lat="46.20752" lon="7.43921"><ele>1480.4</ele><time>2016-06-07T15:53:24Z</time></trkpt>
<trkpt lat="46.20752" lon="7.43922"><ele>1480.4</ele><time>2016-06-07T15:53:33Z</time></trkpt>
<trkpt lat="46.20753" lon="7.43923"><ele>1480.2</ele><time>2016-06-07T15:53:36Z</time></trkpt>
<trkpt lat="46.20754" lon="7.43924"><ele>1480.2</ele><time>2016-06-07T15:53:37Z</time></trkpt>
<trkpt lat="46.20758" lon="7.43927"><ele>1480</ele><time>2016-06-07T15:53:40Z</time></trkpt>
<trkpt lat="46.20759" lon="7.43929"><ele>1479.8</ele><time>2016-06-07T15:53:45Z</time></trkpt>
<trkpt lat="46.2076" lon="7.43929"><ele>1479.8</ele><time>2016-06-07T15:53:49Z</time></trkpt>
<trkpt lat="46.20759" lon="7.43928"><ele>1479.8</ele><time>2016-06-07T15:53:57Z</time></trkpt>
<trkpt lat="46.20759" lon="7.43927"><ele>1479.8</ele><time>2016-06-07T15:53:59Z</time></trkpt>
<trkpt lat="46.20759" lon="7.43927"><ele>1479.8</ele><time>2016-06-07T15:54:02Z</time></trkpt>
<trkpt lat="46.20769" lon="7.43933"><ele>1479.6</ele><time>2016-06-07T15:54:11Z</time></trkpt>
<trkpt lat="46.20777" lon="7.43936"><ele>1479.6</ele><time>2016-06-07T15:54:14Z</time></trkpt>
<trkpt lat="46.20796" lon="7.4394"><ele>1479.6</ele><time>2016-06-07T15:54:19Z</time></trkpt>
<trkpt lat="46.20813" lon="7.43945"><ele>1479.4</ele><time>2016-06-07T15:54:23Z</time></trkpt>
<trkpt lat="46.20818" lon="7.43946"><ele>1479.2</ele><time>2016-06-07T15:54:24Z</time></trkpt>
<trkpt lat="46.20837" lon="7.43947"><ele>1478.4</ele><time>2016-06-07T15:54:28Z</time></trkpt>
<trkpt lat="46.20853" lon="7.43949"><ele>1478.8</ele><time>2016-06-07T15:54:31Z</time></trkpt>
<trkpt lat="46.20864" lon="7.4395"><ele>1479</ele><time>2016-06-07T15:54:33Z</time></trkpt>
<trkpt lat="46.20869" lon="7.43949"><ele>1479.2</ele><time>2016-06-07T15:54:34Z</time></trkpt>
<trkpt lat="46.20875" lon="7.43948"><ele>1479.4</ele><time>2016-06-07T15:54:35Z</time></trkpt>
<trkpt lat="46.20887" lon="7.43945"><ele>1479.4</ele><time>2016-06-07T15:54:37Z</time></trkpt>
<trkpt lat="46.20898" lon="7.4394"><ele>1476.8</ele><time>2016-06-07T15:54:39Z</time></trkpt>
<trkpt lat="46.20904" lon="7.43938"><ele>1475.8</ele><time>2016-06-07T15:54:40Z</time></trkpt>
<trkpt lat="46.20926" lon="7.43933"><ele>1474.2</ele><time>2016-06-07T15:54:43Z</time></trkpt>
<trkpt lat="46.20942" lon="7.43934"><ele>1473.2</ele><time>2016-06-07T15:54:45Z</time></trkpt>
<trkpt lat="46.20951" lon="7.43933"><ele>1471.2</ele><time>2016-06-07T15:54:46Z</time></trkpt>
<trkpt lat="46.20969" lon="7.43928"><ele>1468.4</ele><time>2016-06-07T15:54:48Z</time></trkpt>
<trkpt lat="46.20984" lon="7.43914"><ele>1465.4</ele><time>2016-06-07T15:54:50Z</time></trkpt>
<trkpt lat="46.20992" lon="7.43905"><ele>1464</ele><time>2016-06-07T15:54:51Z</time></trkpt>
<trkpt lat="46.21008" lon="7.43888"><ele>1461.4</ele><time>2016-06-07T15:54:53Z</time></trkpt>
<trkpt lat="46.21026" lon="7.4387"><ele>1458.6</ele><time>2016-06-07T15:54:55Z</time></trkpt>
<trkpt lat="46.21045" lon="7.4385"><ele>1456.4</ele><time>2016-06-07T15:54:57Z</time></trkpt>
<trkpt lat="46.21065" lon="7.43829"><ele>1454</ele><time>2016-06-07T15:54:59Z</time></trkpt>
<trkpt lat="46.21074" lon="7.4382"><ele>1453.2</ele><time>2016-06-07T15:55:00Z</time></trkpt>
<trkpt lat="46.2109" lon="7.43807"><ele>1451</ele><time>2016-06-07T15:55:02Z</time></trkpt>
<trkpt lat="46.21099" lon="7.43789"><ele>1449.2</ele><time>2016-06-07T15:55:05Z</time></trkpt>
<trkpt lat="46.21103" lon="7.43782"><ele>1449.8</ele><time>2016-06-07T15:55:07Z</time></trkpt>
<trkpt lat="46.21115" lon="7.43771"><ele>1449.2</ele><time>2016-06-07T15:55:14Z</time></trkpt>
<trkpt lat="46.2112" lon="7.43769"><ele>1450.2</ele><time>2016-06-07T15:55:17Z</time></trkpt>
<trkpt lat="46.21134" lon="7.43762"><ele>1450</ele><time>2016-06-07T15:55:25Z</time></trkpt>
<trkpt lat="46.21137" lon="7.43759"><ele>1450.2</ele><time>2016-06-07T15:55:27Z</time></trkpt>
<trkpt lat="46.21144" lon="7.43754"><ele>1451.2</ele><time>2016-06-07T15:55:31Z</time></trkpt>
<trkpt lat="46.21152" lon="7.43751"><ele>1452</ele><time>2016-06-07T15:55:35Z</time></trkpt>
<trkpt lat="46.2117" lon="7.43744"><ele>1454.6</ele><time>2016-06-07T15:55:45Z</time></trkpt>
<trkpt lat="46.21188" lon="7.43735"><ele>1457</ele><time>2016-06-07T15:55:56Z</time></trkpt>
<trkpt lat="46.21196" lon="7.43729"><ele>1458</ele><time>2016-06-07T15:56:01Z</time></trkpt>
<trkpt lat="46.21201" lon="7.43724"><ele>1459.4</ele><time>2016-06-07T15:56:04Z</time></trkpt>
<trkpt lat="46.21204" lon="7.43721"><ele>1459.8</ele><time>2016-06-07T15:56:06Z</time></trkpt>
<trkpt lat="46.21205" lon="7.43719"><ele>1460.2</ele><time>2016-06-07T15:56:07Z</time></trkpt>
<trkpt lat="46.21222" lon="7.43705"><ele>1464.4</ele><time>2016-06-07T15:56:18Z</time></trkpt>
<trkpt lat="46.21225" lon="7.43702"><ele>1464.8</ele><time>2016-06-07T15:56:20Z</time></trkpt>
<trkpt lat="46.2123" lon="7.43698"><ele>1465.6</ele><time>2016-06-07T15:56:23Z</time></trkpt>
<trkpt lat="46.21244" lon="7.43684"><ele>1467.8</ele><time>2016-06-07T15:56:32Z</time></trkpt>
<trkpt lat="46.21258" lon="7.43668"><ele>1469.4</ele><time>2016-06-07T15:56:42Z</time></trkpt>
<trkpt lat="46.21274" lon="7.43654"><ele>1471.2</ele><time>2016-06-07T15:56:52Z</time></trkpt>
<trkpt lat="46.21289" lon="7.43639"><ele>1472.8</ele><time>2016-06-07T15:57:03Z</time></trkpt>
<trkpt lat="46.21293" lon="7.43635"><ele>1472.8</ele><time>2016-06-07T15:57:05Z</time></trkpt>
<trkpt lat="46.21309" lon="7.43623"><ele>1473.4</ele><time>2016-06-07T15:57:16Z</time></trkpt>
<trkpt lat="46.21323" lon="7.43605"><ele>1474.6</ele><time>2016-06-07T15:57:26Z</time></trkpt>
<trkpt lat="46.21336" lon="7.43595"><ele>1476.2</ele><time>2016-06-07T15:57:34Z</time></trkpt>
<trkpt lat="46.21352" lon="7.4358"><ele>1477.6</ele><time>2016-06-07T15:57:45Z</time></trkpt>
<trkpt lat="46.21354" lon="7.43579"><ele>1477.8</ele><time>2016-06-07T15:57:46Z</time></trkpt>
<trkpt lat="46.21364" lon="7.4357"><ele>1478.4</ele><time>2016-06-07T15:57:53Z</time></trkpt>
<trkpt lat="46.21375" lon="7.43562"><ele>1477.8</ele><time>2016-06-07T15:58:00Z</time></trkpt>
<trkpt lat="46.21377" lon="7.43561"><ele>1477.8</ele><time>2016-06-07T15:58:01Z</time></trkpt>
<trkpt lat="46.21394" lon="7.43551"><ele>1477.6</ele><time>2016-06-07T15:58:13Z</time></trkpt>
<trkpt lat="46.2141" lon="7.43534"><ele>1478.8</ele><time>2016-06-07T15:58:24Z</time></trkpt>
<trkpt lat="46.21418" lon="7.43525"><ele>1479.6</ele><time>2016-06-07T15:58:30Z</time></trkpt>
<trkpt lat="46.21427" lon="7.43516"><ele>1481</ele><time>2016-06-07T15:58:36Z</time></trkpt>
<trkpt lat="46.21444" lon="7.43503"><ele>1482.8</ele><time>2016-06-07T15:58:47Z</time></trkpt>
<trkpt lat="46.21446" lon="7.43503"><ele>1482.8</ele><time>2016-06-07T15:58:48Z</time></trkpt>
<trkpt lat="46.2146" lon="7.43497"><ele>1484</ele><time>2016-06-07T15:58:58Z</time></trkpt>
<trkpt lat="46.21466" lon="7.43496"><ele>1484.4</ele><time>2016-06-07T15:59:02Z</time></trkpt>
<trkpt lat="46.21474" lon="7.43494"><ele>1485.4</ele><time>2016-06-07T15:59:07Z</time></trkpt>
<trkpt lat="46.21491" lon="7.43499"><ele>1484.8</ele><time>2016-06-07T15:59:17Z</time></trkpt>
<trkpt lat="46.21494" lon="7.43501"><ele>1484.8</ele><time>2016-06-07T15:59:19Z</time></trkpt>
<trkpt lat="46.21498" lon="7.43506"><ele>1484.8</ele><time>2016-06-07T15:59:22Z</time></trkpt>
<trkpt lat="46.21513" lon="7.43528"><ele>1487.2</ele><time>2016-06-07T15:59:37Z</time></trkpt>
<trkpt lat="46.21522" lon="7.43538"><ele>1490.2</ele><time>2016-06-07T15:59:45Z</time></trkpt>
<trkpt lat="46.21526" lon="7.43544"><ele>1490.8</ele><time>2016-06-07T15:59:50Z</time></trkpt>
<trkpt lat="46.21542" lon="7.43557"><ele>1492.6</ele><time>2016-06-07T16:00:02Z</time></trkpt>
<trkpt lat="46.2156" lon="7.43562"><ele>1494.4</ele><time>2016-06-07T16:00:13Z</time></trkpt>
<trkpt lat="46.21565" lon="7.43563"><ele>1495</ele><time>2016-06-07T16:00:16Z</time></trkpt>
<trkpt lat="46.21581" lon="7.43566"><ele>1495.8</ele><time>2016-06-07T16:00:26Z</time></trkpt>
<trkpt lat="46.21599" lon="7.43565"><ele>1498.6</ele><time>2016-06-07T16:00:37Z</time></trkpt>
<trkpt lat="46.21604" lon="7.43566"><ele>1499.4</ele><time>2016-06-07T16:00:40Z</time></trkpt>
<trkpt lat="46.21623" lon="7.4357"><ele>1499.8</ele><time>2016-06-07T16:00:51Z</time></trkpt>
<trkpt lat="46.21641" lon="7.43575"><ele>1498.6</ele><time>2016-06-07T16:01:01Z</time></trkpt>
<trkpt lat="46.21659" lon="7.4358"><ele>1503.2</ele><time>2016-06-07T16:01:12Z</time></trkpt>
<trkpt lat="46.21668" lon="7.43583"><ele>1505</ele><time>2016-06-07T16:01:18Z</time></trkpt>
<trkpt lat="46.21673" lon="7.43585"><ele>1504.6</ele><time>2016-06-07T16:01:21Z</time></trkpt>
<trkpt lat="46.21696" lon="7.43588"><ele>1504</ele><time>2016-06-07T16:01:34Z</time></trkpt>
<trkpt lat="46.21715" lon="7.43588"><ele>1508.4</ele><time>2016-06-07T16:01:44Z</time></trkpt>
<trkpt lat="46.21733" lon="7.4359"><ele>1508.8</ele><time>2016-06-07T16:01:55Z</time></trkpt>
<trkpt lat="46.21751" lon="7.43585"><ele>1508.8</ele><time>2016-06-07T16:02:06Z</time></trkpt>
<trkpt lat="46.2177" lon="7.43575"><ele>1509</ele><time>2016-06-07T16:02:16Z</time></trkpt>
<trkpt lat="46.21788" lon="7.43563"><ele>1508.8</ele><time>2016-06-07T16:02:24Z</time></trkpt>
<trkpt lat="46.21803" lon="7.43555"><ele>1509.8</ele><time>2016-06-07T16:02:32Z</time></trkpt>
<trkpt lat="46.21817" lon="7.43544"><ele>1512.8</ele><time>2016-06-07T16:02:41Z</time></trkpt>
<trkpt lat="46.21835" lon="7.43534"><ele>1516.6</ele><time>2016-06-07T16:02:52Z</time></trkpt>
<trkpt lat="46.21853" lon="7.43526"><ele>1518.8</ele><time>2016-06-07T16:03:03Z</time></trkpt>
<trkpt lat="46.21872" lon="7.43519"><ele>1522.8</ele><time>2016-06-07T16:03:15Z</time></trkpt>
<trkpt lat="46.21889" lon="7.43527"><ele>1526.4</ele><time>2016-06-07T16:03:27Z</time></trkpt>
<trkpt lat="46.21894" lon="7.43531"><ele>1527.2</ele><time>2016-06-07T16:03:30Z</time></trkpt>
<trkpt lat="46.21921" lon="7.43541"><ele>1531.6</ele><time>2016-06-07T16:03:45Z</time></trkpt>
<trkpt lat="46.21928" lon="7.43541"><ele>1533.4</ele><time>2016-06-07T16:03:50Z</time></trkpt>
<trkpt lat="46.21933" lon="7.43539"><ele>1535</ele><time>2016-06-07T16:03:54Z</time></trkpt>
<trkpt lat="46.2195" lon="7.43531"><ele>1541.2</ele><time>2016-06-07T16:04:05Z</time></trkpt>
<trkpt lat="46.21969" lon="7.43527"><ele>1544.2</ele><time>2016-06-07T16:04:15Z</time></trkpt>
<trkpt lat="46.21972" lon="7.43526"><ele>1544.6</ele><time>2016-06-07T16:04:17Z</time></trkpt>
<trkpt lat="46.21998" lon="7.43521"><ele>1548.2</ele><time>2016-06-07T16:04:31Z</time></trkpt>
<trkpt lat="46.22017" lon="7.4352"><ele>1552.4</ele><time>2016-06-07T16:04:42Z</time></trkpt>
<trkpt lat="46.22034" lon="7.43536"><ele>1554.4</ele><time>2016-06-07T16:04:51Z</time></trkpt>
<trkpt lat="46.22043" lon="7.43555"><ele>1556</ele><time>2016-06-07T16:05:00Z</time></trkpt>
<trkpt lat="46.22043" lon="7.43579"><ele>1556.4</ele><time>2016-06-07T16:05:10Z</time></trkpt>
<trkpt lat="46.2204" lon="7.43584"><ele>1556.8</ele><time>2016-06-07T16:05:13Z</time></trkpt>
<trkpt lat="46.2205" lon="7.43583"><ele>1557.4</ele><time>2016-06-07T16:05:18Z</time></trkpt>
<trkpt lat="46.22069" lon="7.43583"><ele>1557.6</ele><time>2016-06-07T16:05:23Z</time></trkpt>
<trkpt lat="46.22084" lon="7.43577"><ele>1556.8</ele><time>2016-06-07T16:05:26Z</time></trkpt>
<trkpt lat="46.22101" lon="7.43557"><ele>1556.2</ele><time>2016-06-07T16:05:30Z</time></trkpt>
<trkpt lat="46.22107" lon="7.43547"><ele>1556.2</ele><time>2016-06-07T16:05:33Z</time></trkpt>
<trkpt lat="46.22118" lon="7.4355"><ele>1551.2</ele><time>2016-06-07T16:05:38Z</time></trkpt>
<trkpt lat="46.22133" lon="7.43566"><ele>1544.6</ele><time>2016-06-07T16:05:46Z</time></trkpt>
<trkpt lat="46.22141" lon="7.43576"><ele>1542.2</ele><time>2016-06-07T16:05:52Z</time></trkpt>
<trkpt lat="46.22157" lon="7.43587"><ele>1540.8</ele><time>2016-06-07T16:06:06Z</time></trkpt>
<trkpt lat="46.22175" lon="7.4359"><ele>1542.2</ele><time>2016-06-07T16:06:21Z</time></trkpt>
<trkpt lat="46.22184" lon="7.43597"><ele>1542.6</ele><time>2016-06-07T16:06:27Z</time></trkpt>
<trkpt lat="46.22193" lon="7.43607"><ele>1544</ele><time>2016-06-07T16:06:35Z</time></trkpt>
<trkpt lat="46.22212" lon="7.43628"><ele>1549</ele><time>2016-06-07T16:06:53Z</time></trkpt>
<trkpt lat="46.22222" lon="7.43648"><ele>1551.6</ele><time>2016-06-07T16:07:06Z</time></trkpt>
<trkpt lat="46.22227" lon="7.43661"><ele>1552.4</ele><time>2016-06-07T16:07:13Z</time></trkpt>
<trkpt lat="46.22234" lon="7.43675"><ele>1552.8</ele><time>2016-06-07T16:07:22Z</time></trkpt>
<trkpt lat="46.22249" lon="7.4369"><ele>1555.4</ele><time>2016-06-07T16:07:35Z</time></trkpt>
<trkpt lat="46.22251" lon="7.43692"><ele>1555.6</ele><time>2016-06-07T16:07:37Z</time></trkpt>
<trkpt lat="46.22258" lon="7.43704"><ele>1556.2</ele><time>2016-06-07T16:07:46Z</time></trkpt>
<trkpt lat="46.22271" lon="7.43726"><ele>1558.6</ele><time>2016-06-07T16:07:59Z</time></trkpt>
<trkpt lat="46.22275" lon="7.43737"><ele>1559.4</ele><time>2016-06-07T16:08:05Z</time></trkpt>
<trkpt lat="46.22279" lon="7.43748"><ele>1560</ele><time>2016-06-07T16:08:11Z</time></trkpt>
<trkpt lat="46.22281" lon="7.43757"><ele>1560.6</ele><time>2016-06-07T16:08:17Z</time></trkpt>
<trkpt lat="46.22281" lon="7.43761"><ele>1560.8</ele><time>2016-06-07T16:08:18Z</time></trkpt>
<trkpt lat="46.22281" lon="7.43771"><ele>1561.8</ele><time>2016-06-07T16:08:23Z</time></trkpt>
<trkpt lat="46.22281" lon="7.43781"><ele>1563.2</ele><time>2016-06-07T16:08:29Z</time></trkpt>
<trkpt lat="46.22289" lon="7.43806"><ele>1566.6</ele><time>2016-06-07T16:08:45Z</time></trkpt>
<trkpt lat="46.2229" lon="7.4382"><ele>1568.2</ele><time>2016-06-07T16:08:54Z</time></trkpt>
<trkpt lat="46.2229" lon="7.43833"><ele>1569.4</ele><time>2016-06-07T16:09:00Z</time></trkpt>
<trkpt lat="46.22296" lon="7.43851"><ele>1572.4</ele><time>2016-06-07T16:09:08Z</time></trkpt>
<trkpt lat="46.22296" lon="7.43853"><ele>1572.6</ele><time>2016-06-07T16:09:09Z</time></trkpt>
<trkpt lat="46.22303" lon="7.43877"><ele>1576.6</ele><time>2016-06-07T16:09:20Z</time></trkpt>
<trkpt lat="46.22306" lon="7.4389"><ele>1576.2</ele><time>2016-06-07T16:09:26Z</time></trkpt>
<trkpt lat="46.22311" lon="7.4391"><ele>1576.2</ele><time>2016-06-07T16:09:35Z</time></trkpt>
<trkpt lat="46.22314" lon="7.43936"><ele>1576</ele><time>2016-06-07T16:09:48Z</time></trkpt>
<trkpt lat="46.22315" lon="7.43943"><ele>1576</ele><time>2016-06-07T16:09:53Z</time></trkpt>
<trkpt lat="46.22319" lon="7.43967"><ele>1576.2</ele><time>2016-06-07T16:10:05Z</time></trkpt>
<trkpt lat="46.22319" lon="7.43979"><ele>1576.8</ele><time>2016-06-07T16:10:10Z</time></trkpt>
<trkpt lat="46.22321" lon="7.44005"><ele>1579.2</ele><time>2016-06-07T16:10:24Z</time></trkpt>
<trkpt lat="46.2232" lon="7.44033"><ele>1581</ele><time>2016-06-07T16:10:36Z</time></trkpt>
<trkpt lat="46.22312" lon="7.44057"><ele>1581.8</ele><time>2016-06-07T16:10:49Z</time></trkpt>
<trkpt lat="46.22308" lon="7.44073"><ele>1582.6</ele><time>2016-06-07T16:10:58Z</time></trkpt>
<trkpt lat="46.22308" lon="7.44088"><ele>1583.2</ele><time>2016-06-07T16:11:04Z</time></trkpt>
<trkpt lat="46.22314" lon="7.44112"><ele>1585</ele><time>2016-06-07T16:11:17Z</time></trkpt>
<trkpt lat="46.22315" lon="7.44119"><ele>1585.4</ele><time>2016-06-07T16:11:20Z</time></trkpt>
<trkpt lat="46.22315" lon="7.44139"><ele>1586.4</ele><time>2016-06-07T16:11:30Z</time></trkpt>
<trkpt lat="46.22314" lon="7.44165"><ele>1589.2</ele><time>2016-06-07T16:11:44Z</time></trkpt>
<trkpt lat="46.22316" lon="7.44191"><ele>1591.6</ele><time>2016-06-07T16:11:57Z</time></trkpt>
<trkpt lat="46.22323" lon="7.44207"><ele>1592.8</ele><time>2016-06-07T16:12:07Z</time></trkpt>
<trkpt lat="46.22329" lon="7.44233"><ele>1594.4</ele><time>2016-06-07T16:12:20Z</time></trkpt>
<trkpt lat="46.2233" lon="7.44237"><ele>1594.8</ele><time>2016-06-07T16:12:22Z</time></trkpt>
<trkpt lat="46.22329" lon="7.44263"><ele>1598</ele><time>2016-06-07T16:12:36Z</time></trkpt>
<trkpt lat="46.22327" lon="7.44289"><ele>1601.6</ele><time>2016-06-07T16:12:49Z</time></trkpt>
<trkpt lat="46.22329" lon="7.44315"><ele>1605</ele><time>2016-06-07T16:13:03Z</time></trkpt>
<trkpt lat="46.22334" lon="7.44331"><ele>1607</ele><time>2016-06-07T16:13:13Z</time></trkpt>
<trkpt lat="46.2234" lon="7.44357"><ele>1608.6</ele><time>2016-06-07T16:13:28Z</time></trkpt>
<trkpt lat="46.22333" lon="7.44381"><ele>1609</ele><time>2016-06-07T16:13:41Z</time></trkpt>
<trkpt lat="46.22329" lon="7.44407"><ele>1608.6</ele><time>2016-06-07T16:13:55Z</time></trkpt>
<trkpt lat="46.22336" lon="7.44437"><ele>1609.6</ele><time>2016-06-07T16:14:11Z</time></trkpt>
<trkpt lat="46.22343" lon="7.44462"><ele>1611.2</ele><time>2016-06-07T16:14:24Z</time></trkpt>
<trkpt lat="46.22343" lon="7.44463"><ele>1611.2</ele><time>2016-06-07T16:14:25Z</time></trkpt>
<trkpt lat="46.22345" lon="7.44483"><ele>1613</ele><time>2016-06-07T16:14:35Z</time></trkpt>
<trkpt lat="46.22348" lon="7.44507"><ele>1616.6</ele><time>2016-06-07T16:14:48Z</time></trkpt>
<trkpt lat="46.22353" lon="7.44533"><ele>1620</ele><time>2016-06-07T16:15:01Z</time></trkpt>
<trkpt lat="46.22355" lon="7.44552"><ele>1622.2</ele><time>2016-06-07T16:15:10Z</time></trkpt>
<trkpt lat="46.22353" lon="7.44563"><ele>1623.4</ele><time>2016-06-07T16:15:16Z</time></trkpt>
<trkpt lat="46.22344" lon="7.44587"><ele>1625.8</ele><time>2016-06-07T16:15:29Z</time></trkpt>
<trkpt lat="46.22343" lon="7.44589"><ele>1626</ele><time>2016-06-07T16:15:30Z</time></trkpt>
<trkpt lat="46.22342" lon="7.44613"><ele>1627.8</ele><time>2016-06-07T16:15:42Z</time></trkpt>
<trkpt lat="46.22341" lon="7.44628"><ele>1629</ele><time>2016-06-07T16:15:50Z</time></trkpt>
<trkpt lat="46.22343" lon="7.44655"><ele>1632.8</ele><time>2016-06-07T16:16:03Z</time></trkpt>
<trkpt lat="46.22338" lon="7.44677"><ele>1635.4</ele><time>2016-06-07T16:16:15Z</time></trkpt>
<trkpt lat="46.22333" lon="7.44701"><ele>1637.6</ele><time>2016-06-07T16:16:28Z</time></trkpt>
<trkpt lat="46.22334" lon="7.44703"><ele>1637.8</ele><time>2016-06-07T16:16:29Z</time></trkpt>
<trkpt lat="46.22334" lon="7.44707"><ele>1638.4</ele><time>2016-06-07T16:16:33Z</time></trkpt>
<trkpt lat="46.22335" lon="7.44723"><ele>1640.2</ele><time>2016-06-07T16:16:43Z</time></trkpt>
<trkpt lat="46.22335" lon="7.44747"><ele>1642.6</ele><time>2016-06-07T16:16:58Z</time></trkpt>
<trkpt lat="46.22336" lon="7.44753"><ele>1643.2</ele><time>2016-06-07T16:17:01Z</time></trkpt>
<trkpt lat="46.22325" lon="7.44775"><ele>1646</ele><time>2016-06-07T16:17:15Z</time></trkpt>
<trkpt lat="46.22324" lon="7.44778"><ele>1646.2</ele><time>2016-06-07T16:17:16Z</time></trkpt>
<trkpt lat="46.22315" lon="7.44793"><ele>1648.2</ele><time>2016-06-07T16:17:25Z</time></trkpt>
<trkpt lat="46.22312" lon="7.448"><ele>1649.2</ele><time>2016-06-07T16:17:29Z</time></trkpt>
<trkpt lat="46.22307" lon="7.44812"><ele>1651.6</ele><time>2016-06-07T16:17:37Z</time></trkpt>
<trkpt lat="46.22302" lon="7.44834"><ele>1655.2</ele><time>2016-06-07T16:17:49Z</time></trkpt>
<trkpt lat="46.22302" lon="7.44839"><ele>1656</ele><time>2016-06-07T16:17:52Z</time></trkpt>
<trkpt lat="46.22304" lon="7.44852"><ele>1657.6</ele><time>2016-06-07T16:17:59Z</time></trkpt>
<trkpt lat="46.22307" lon="7.44866"><ele>1658.8</ele><time>2016-06-07T16:18:08Z</time></trkpt>
<trkpt lat="46.22306" lon="7.44871"><ele>1659.2</ele><time>2016-06-07T16:18:11Z</time></trkpt>
<trkpt lat="46.22306" lon="7.44872"><ele>1659.4</ele><time>2016-06-07T16:18:12Z</time></trkpt>
<trkpt lat="46.22307" lon="7.44881"><ele>1660</ele><time>2016-06-07T16:18:17Z</time></trkpt>
<trkpt lat="46.22307" lon="7.44883"><ele>1660.2</ele><time>2016-06-07T16:18:18Z</time></trkpt>
<trkpt lat="46.223" lon="7.44906"><ele>1660.8</ele><time>2016-06-07T16:18:30Z</time></trkpt>
<trkpt lat="46.22296" lon="7.44918"><ele>1660.2</ele><time>2016-06-07T16:18:36Z</time></trkpt>
<trkpt lat="46.22295" lon="7.44932"><ele>1660.2</ele><time>2016-06-07T16:18:43Z</time></trkpt>
<trkpt lat="46.22293" lon="7.44942"><ele>1659.8</ele><time>2016-06-07T16:18:49Z</time></trkpt>
<trkpt lat="46.2229" lon="7.44968"><ele>1660.2</ele><time>2016-06-07T16:19:00Z</time></trkpt>
<trkpt lat="46.2229" lon="7.44971"><ele>1660.2</ele><time>2016-06-07T16:19:01Z</time></trkpt>
<trkpt lat="46.22291" lon="7.44982"><ele>1660.4</ele><time>2016-06-07T16:19:06Z</time></trkpt>
<trkpt lat="46.22291" lon="7.44985"><ele>1660.4</ele><time>2016-06-07T16:19:07Z</time></trkpt>
<trkpt lat="46.22291" lon="7.44989"><ele>1660.8</ele><time>2016-06-07T16:19:09Z</time></trkpt>
<trkpt lat="46.2229" lon="7.44992"><ele>1660.8</ele><time>2016-06-07T16:19:10Z</time></trkpt>
<trkpt lat="46.22288" lon="7.45005"><ele>1661.2</ele><time>2016-06-07T16:19:17Z</time></trkpt>
<trkpt lat="46.22286" lon="7.45012"><ele>1661.6</ele><time>2016-06-07T16:19:21Z</time></trkpt>
<trkpt lat="46.22283" lon="7.45028"><ele>1661.4</ele><time>2016-06-07T16:19:29Z</time></trkpt>
<trkpt lat="46.22281" lon="7.45035"><ele>1661.6</ele><time>2016-06-07T16:19:33Z</time></trkpt>
<trkpt lat="46.22279" lon="7.45061"><ele>1662.6</ele><time>2016-06-07T16:19:46Z</time></trkpt>
<trkpt lat="46.22279" lon="7.45088"><ele>1663.2</ele><time>2016-06-07T16:19:59Z</time></trkpt>
<trkpt lat="46.22279" lon="7.4509"><ele>1663.2</ele><time>2016-06-07T16:20:00Z</time></trkpt>
<trkpt lat="46.22283" lon="7.45116"><ele>1665.2</ele><time>2016-06-07T16:20:12Z</time></trkpt>
<trkpt lat="46.22281" lon="7.45141"><ele>1666.8</ele><time>2016-06-07T16:20:22Z</time></trkpt>
<trkpt lat="46.22272" lon="7.45164"><ele>1667.6</ele><time>2016-06-07T16:20:32Z</time></trkpt>
<trkpt lat="46.22273" lon="7.45191"><ele>1669</ele><time>2016-06-07T16:20:42Z</time></trkpt>
<trkpt lat="46.22278" lon="7.45217"><ele>1670.8</ele><time>2016-06-07T16:20:52Z</time></trkpt>
<trkpt lat="46.22292" lon="7.45255"><ele>1674.2</ele><time>2016-06-07T16:21:06Z</time></trkpt>
<trkpt lat="46.2229" lon="7.45282"><ele>1677.8</ele><time>2016-06-07T16:21:15Z</time></trkpt>
<trkpt lat="46.22282" lon="7.45301"><ele>1681</ele><time>2016-06-07T16:21:22Z</time></trkpt>
<trkpt lat="46.22281" lon="7.45301"><ele>1682</ele><time>2016-06-07T16:21:24Z</time></trkpt>
<trkpt lat="46.22279" lon="7.4529"><ele>1685.2</ele><time>2016-06-07T16:21:31Z</time></trkpt>
<trkpt lat="46.22279" lon="7.45288"><ele>1685.4</ele><time>2016-06-07T16:21:32Z</time></trkpt>
<trkpt lat="46.22279" lon="7.45285"><ele>1685.8</ele><time>2016-06-07T16:21:34Z</time></trkpt>
<trkpt lat="46.22281" lon="7.45278"><ele>1686.4</ele><time>2016-06-07T16:21:39Z</time></trkpt>
<trkpt lat="46.22281" lon="7.4527"><ele>1687</ele><time>2016-06-07T16:21:44Z</time></trkpt>
<trkpt lat="46.2228" lon="7.45259"><ele>1687.6</ele><time>2016-06-07T16:21:51Z</time></trkpt>
<trkpt lat="46.22278" lon="7.45255"><ele>1688</ele><time>2016-06-07T16:21:54Z</time></trkpt>
<trkpt lat="46.22274" lon="7.45246"><ele>1688.8</ele><time>2016-06-07T16:21:59Z</time></trkpt>
<trkpt lat="46.22271" lon="7.45239"><ele>1689.2</ele><time>2016-06-07T16:22:02Z</time></trkpt>
<trkpt lat="46.22268" lon="7.45234"><ele>1689.4</ele><time>2016-06-07T16:22:05Z</time></trkpt>
<trkpt lat="46.22256" lon="7.45214"><ele>1690.2</ele><time>2016-06-07T16:22:15Z</time></trkpt>
<trkpt lat="46.22252" lon="7.45207"><ele>1691</ele><time>2016-06-07T16:22:18Z</time></trkpt>
<trkpt lat="46.22245" lon="7.45195"><ele>1692.2</ele><time>2016-06-07T16:22:24Z</time></trkpt>
<trkpt lat="46.2224" lon="7.4518"><ele>1693.6</ele><time>2016-06-07T16:22:30Z</time></trkpt>
<trkpt lat="46.22236" lon="7.45165"><ele>1694.8</ele><time>2016-06-07T16:22:35Z</time></trkpt>
<trkpt lat="46.22236" lon="7.45151"><ele>1695</ele><time>2016-06-07T16:22:39Z</time></trkpt>
<trkpt lat="46.22237" lon="7.45123"><ele>1695.6</ele><time>2016-06-07T16:22:48Z</time></trkpt>
<trkpt lat="46.22231" lon="7.4511"><ele>1694.6</ele><time>2016-06-07T16:22:52Z</time></trkpt>
<trkpt lat="46.22222" lon="7.4509"><ele>1692.6</ele><time>2016-06-07T16:22:59Z</time></trkpt>
<trkpt lat="46.2222" lon="7.45063"><ele>1692.4</ele><time>2016-06-07T16:23:09Z</time></trkpt>
<trkpt lat="46.22209" lon="7.45026"><ele>1692.8</ele><time>2016-06-07T16:23:23Z</time></trkpt>
<trkpt lat="46.22195" lon="7.45006"><ele>1691</ele><time>2016-06-07T16:23:32Z</time></trkpt>
<trkpt lat="46.22186" lon="7.44989"><ele>1691</ele><time>2016-06-07T16:23:38Z</time></trkpt>
<trkpt lat="46.22186" lon="7.44962"><ele>1692.8</ele><time>2016-06-07T16:23:47Z</time></trkpt>
<trkpt lat="46.22187" lon="7.44948"><ele>1693.6</ele><time>2016-06-07T16:23:53Z</time></trkpt>
<trkpt lat="46.22188" lon="7.44943"><ele>1694</ele><time>2016-06-07T16:23:55Z</time></trkpt>
<trkpt lat="46.22183" lon="7.44917"><ele>1697.8</ele><time>2016-06-07T16:24:07Z</time></trkpt>
<trkpt lat="46.22186" lon="7.44891"><ele>1701</ele><time>2016-06-07T16:24:18Z</time></trkpt>
<trkpt lat="46.22186" lon="7.44863"><ele>1701.2</ele><time>2016-06-07T16:24:25Z</time></trkpt>
<trkpt lat="46.22186" lon="7.44856"><ele>1701.6</ele><time>2016-06-07T16:24:27Z</time></trkpt>
<trkpt lat="46.22181" lon="7.44833"><ele>1703</ele><time>2016-06-07T16:24:32Z</time></trkpt>
<trkpt lat="46.22175" lon="7.44817"><ele>1702.2</ele><time>2016-06-07T16:24:36Z</time></trkpt>
<trkpt lat="46.22168" lon="7.44786"><ele>1704.4</ele><time>2016-06-07T16:24:45Z</time></trkpt>
<trkpt lat="46.22168" lon="7.44783"><ele>1704.6</ele><time>2016-06-07T16:24:46Z</time></trkpt>
<trkpt lat="46.22169" lon="7.44781"><ele>1704.6</ele><time>2016-06-07T16:24:48Z</time></trkpt>
<trkpt lat="46.2217" lon="7.44767"><ele>1705</ele><time>2016-06-07T16:24:56Z</time></trkpt>
<trkpt lat="46.22165" lon="7.44746"><ele>1705.4</ele><time>2016-06-07T16:25:03Z</time></trkpt>
<trkpt lat="46.22165" lon="7.44744"><ele>1705.6</ele><time>2016-06-07T16:25:04Z</time></trkpt>
<trkpt lat="46.22163" lon="7.44736"><ele>1705.8</ele><time>2016-06-07T16:25:08Z</time></trkpt>
<trkpt lat="46.22157" lon="7.44727"><ele>1705.2</ele><time>2016-06-07T16:25:12Z</time></trkpt>
<trkpt lat="46.22151" lon="7.44717"><ele>1705.4</ele><time>2016-06-07T16:25:17Z</time></trkpt>
<trkpt lat="46.22149" lon="7.4471"><ele>1705.6</ele><time>2016-06-07T16:25:20Z</time></trkpt>
<trkpt lat="46.22143" lon="7.44683"><ele>1708.8</ele><time>2016-06-07T16:25:32Z</time></trkpt>
<trkpt lat="46.2213" lon="7.44661"><ele>1708.6</ele><time>2016-06-07T16:25:41Z</time></trkpt>
<trkpt lat="46.22116" lon="7.44643"><ele>1709.2</ele><time>2016-06-07T16:25:50Z</time></trkpt>
<trkpt lat="46.22105" lon="7.4463"><ele>1711.8</ele><time>2016-06-07T16:25:57Z</time></trkpt>
<trkpt lat="46.221" lon="7.44619"><ele>1713.4</ele><time>2016-06-07T16:26:01Z</time></trkpt>
<trkpt lat="46.22102" lon="7.446"><ele>1714.4</ele><time>2016-06-07T16:26:07Z</time></trkpt>
<trkpt lat="46.22107" lon="7.44574"><ele>1716.8</ele><time>2016-06-07T16:26:16Z</time></trkpt>
<trkpt lat="46.2211" lon="7.44556"><ele>1718.4</ele><time>2016-06-07T16:26:21Z</time></trkpt>
<trkpt lat="46.22112" lon="7.44546"><ele>1720.4</ele><time>2016-06-07T16:26:24Z</time></trkpt>
<trkpt lat="46.22117" lon="7.44517"><ele>1722.6</ele><time>2016-06-07T16:26:32Z</time></trkpt>
<trkpt lat="46.22117" lon="7.44488"><ele>1722.2</ele><time>2016-06-07T16:26:40Z</time></trkpt>
<trkpt lat="46.22117" lon="7.4448"><ele>1722.2</ele><time>2016-06-07T16:26:42Z</time></trkpt>
<trkpt lat="46.22111" lon="7.44453"><ele>1720.4</ele><time>2016-06-07T16:26:49Z</time></trkpt>
<trkpt lat="46.2211" lon="7.44449"><ele>1720</ele><time>2016-06-07T16:26:50Z</time></trkpt>
<trkpt lat="46.22103" lon="7.44439"><ele>1718.2</ele><time>2016-06-07T16:26:53Z</time></trkpt>
<trkpt lat="46.2209" lon="7.4442"><ele>1716.6</ele><time>2016-06-07T16:26:59Z</time></trkpt>
<trkpt lat="46.22077" lon="7.44398"><ele>1717.2</ele><time>2016-06-07T16:27:07Z</time></trkpt>
<trkpt lat="46.22063" lon="7.44381"><ele>1716</ele><time>2016-06-07T16:27:13Z</time></trkpt>
<trkpt lat="46.2205" lon="7.4436"><ele>1717.2</ele><time>2016-06-07T16:27:20Z</time></trkpt>
<trkpt lat="46.22037" lon="7.44342"><ele>1717.6</ele><time>2016-06-07T16:27:27Z</time></trkpt>
<trkpt lat="46.22019" lon="7.44332"><ele>1717.2</ele><time>2016-06-07T16:27:34Z</time></trkpt>
<trkpt lat="46.22003" lon="7.44319"><ele>1719.2</ele><time>2016-06-07T16:27:41Z</time></trkpt>
<trkpt lat="46.21989" lon="7.44309"><ele>1721</ele><time>2016-06-07T16:27:47Z</time></trkpt>
<trkpt lat="46.21973" lon="7.44295"><ele>1722.2</ele><time>2016-06-07T16:27:54Z</time></trkpt>
<trkpt lat="46.21957" lon="7.44281"><ele>1723</ele><time>2016-06-07T16:28:01Z</time></trkpt>
<trkpt lat="46.21941" lon="7.4428"><ele>1724</ele><time>2016-06-07T16:28:06Z</time></trkpt>
<trkpt lat="46.2193" lon="7.4428"><ele>1725</ele><time>2016-06-07T16:28:09Z</time></trkpt>
<trkpt lat="46.21906" lon="7.4428"><ele>1725</ele><time>2016-06-07T16:28:16Z</time></trkpt>
<trkpt lat="46.21899" lon="7.44283"><ele>1725</ele><time>2016-06-07T16:28:18Z</time></trkpt>
<trkpt lat="46.21881" lon="7.44282"><ele>1723.2</ele><time>2016-06-07T16:28:23Z</time></trkpt>
<trkpt lat="46.21865" lon="7.44263"><ele>1721.8</ele><time>2016-06-07T16:28:29Z</time></trkpt>
<trkpt lat="46.21846" lon="7.44246"><ele>1721</ele><time>2016-06-07T16:28:34Z</time></trkpt>
<trkpt lat="46.21836" lon="7.4424"><ele>1720.4</ele><time>2016-06-07T16:28:36Z</time></trkpt>
<trkpt lat="46.21813" lon="7.44239"><ele>1719.6</ele><time>2016-06-07T16:28:40Z</time></trkpt>
<trkpt lat="46.218" lon="7.44239"><ele>1718.8</ele><time>2016-06-07T16:28:42Z</time></trkpt>
<trkpt lat="46.21779" lon="7.44238"><ele>1717.2</ele><time>2016-06-07T16:28:45Z</time></trkpt>
<trkpt lat="46.21756" lon="7.44234"><ele>1715</ele><time>2016-06-07T16:28:48Z</time></trkpt>
<trkpt lat="46.21736" lon="7.44232"><ele>1713</ele><time>2016-06-07T16:28:51Z</time></trkpt>
<trkpt lat="46.21722" lon="7.44237"><ele>1711.6</ele><time>2016-06-07T16:28:53Z</time></trkpt>
<trkpt lat="46.21708" lon="7.44246"><ele>1709.4</ele><time>2016-06-07T16:28:55Z</time></trkpt>
<trkpt lat="46.21693" lon="7.44254"><ele>1707.8</ele><time>2016-06-07T16:28:57Z</time></trkpt>
<trkpt lat="46.21668" lon="7.44255"><ele>1705.2</ele><time>2016-06-07T16:29:00Z</time></trkpt>
<trkpt lat="46.2166" lon="7.44254"><ele>1705</ele><time>2016-06-07T16:29:01Z</time></trkpt>
<trkpt lat="46.21644" lon="7.44253"><ele>1704</ele><time>2016-06-07T16:29:03Z</time></trkpt>
<trkpt lat="46.21631" lon="7.44255"><ele>1703</ele><time>2016-06-07T16:29:05Z</time></trkpt>
<trkpt lat="46.21625" lon="7.44259"><ele>1702.2</ele><time>2016-06-07T16:29:06Z</time></trkpt>
<trkpt lat="46.21614" lon="7.44266"><ele>1701</ele><time>2016-06-07T16:29:08Z</time></trkpt>
<trkpt lat="46.2161" lon="7.44269"><ele>1700.4</ele><time>2016-06-07T16:29:09Z</time></trkpt>
<trkpt lat="46.21595" lon="7.44281"><ele>1699.2</ele><time>2016-06-07T16:29:14Z</time></trkpt>
<trkpt lat="46.21592" lon="7.44289"><ele>1698.4</ele><time>2016-06-07T16:29:16Z</time></trkpt>
<trkpt lat="46.21575" lon="7.443"><ele>1698.6</ele><time>2016-06-07T16:29:24Z</time></trkpt>
<trkpt lat="46.21558" lon="7.44311"><ele>1701</ele><time>2016-06-07T16:29:36Z</time></trkpt>
<trkpt lat="46.21548" lon="7.44319"><ele>1706</ele><time>2016-06-07T16:29:41Z</time></trkpt>
<trkpt lat="46.2154" lon="7.4433"><ele>1709.2</ele><time>2016-06-07T16:29:46Z</time></trkpt>
<trkpt lat="46.21538" lon="7.44335"><ele>1710.6</ele><time>2016-06-07T16:29:48Z</time></trkpt>
<trkpt lat="46.21535" lon="7.4435"><ele>1712</ele><time>2016-06-07T16:29:53Z</time></trkpt>
<trkpt lat="46.21532" lon="7.44374"><ele>1712.2</ele><time>2016-06-07T16:30:01Z</time></trkpt>
<trkpt lat="46.21527" lon="7.44399"><ele>1715.6</ele><time>2016-06-07T16:30:09Z</time></trkpt>
<trkpt lat="46.21526" lon="7.44404"><ele>1716.4</ele><time>2016-06-07T16:30:11Z</time></trkpt>
<trkpt lat="46.21524" lon="7.44412"><ele>1717.4</ele><time>2016-06-07T16:30:14Z</time></trkpt>
<trkpt lat="46.2152" lon="7.44431"><ele>1719.8</ele><time>2016-06-07T16:30:21Z</time></trkpt>
<trkpt lat="46.21515" lon="7.44456"><ele>1723.4</ele><time>2016-06-07T16:30:30Z</time></trkpt>
<trkpt lat="46.21511" lon="7.44473"><ele>1724.4</ele><time>2016-06-07T16:30:37Z</time></trkpt>
<trkpt lat="46.21508" lon="7.44496"><ele>1724.2</ele><time>2016-06-07T16:30:48Z</time></trkpt>
<trkpt lat="46.21503" lon="7.44522"><ele>1726.2</ele><time>2016-06-07T16:31:00Z</time></trkpt>
<trkpt lat="46.215" lon="7.44535"><ele>1727</ele><time>2016-06-07T16:31:06Z</time></trkpt>
<trkpt lat="46.21495" lon="7.44545"><ele>1727.4</ele><time>2016-06-07T16:31:11Z</time></trkpt>
<trkpt lat="46.21488" lon="7.44569"><ele>1728.2</ele><time>2016-06-07T16:31:24Z</time></trkpt>
<trkpt lat="46.2148" lon="7.44593"><ele>1731</ele><time>2016-06-07T16:31:36Z</time></trkpt>
<trkpt lat="46.21477" lon="7.44621"><ele>1733.6</ele><time>2016-06-07T16:31:48Z</time></trkpt>
<trkpt lat="46.2147" lon="7.44645"><ele>1734.8</ele><time>2016-06-07T16:31:59Z</time></trkpt>
<trkpt lat="46.21452" lon="7.44675"><ele>1735</ele><time>2016-06-07T16:32:14Z</time></trkpt>
<trkpt lat="46.21441" lon="7.44691"><ele>1735.8</ele><time>2016-06-07T16:32:24Z</time></trkpt>
<trkpt lat="46.21425" lon="7.44707"><ele>1738.2</ele><time>2016-06-07T16:32:37Z</time></trkpt>
<trkpt lat="46.21411" lon="7.44723"><ele>1741.2</ele><time>2016-06-07T16:32:48Z</time></trkpt>
<trkpt lat="46.21396" lon="7.44741"><ele>1744</ele><time>2016-06-07T16:32:59Z</time></trkpt>
<trkpt lat="46.21383" lon="7.44759"><ele>1745.6</ele><time>2016-06-07T16:33:09Z</time></trkpt>
<trkpt lat="46.2137" lon="7.44778"><ele>1746.6</ele><time>2016-06-07T16:33:19Z</time></trkpt>
<trkpt lat="46.21355" lon="7.44793"><ele>1747</ele><time>2016-06-07T16:33:25Z</time></trkpt>
<trkpt lat="46.21337" lon="7.44807"><ele>1747.2</ele><time>2016-06-07T16:33:31Z</time></trkpt>
<trkpt lat="46.21331" lon="7.44813"><ele>1747.8</ele><time>2016-06-07T16:33:33Z</time></trkpt>
<trkpt lat="46.21317" lon="7.44838"><ele>1749.8</ele><time>2016-06-07T16:33:42Z</time></trkpt>
<trkpt lat="46.21316" lon="7.4484"><ele>1750.4</ele><time>2016-06-07T16:33:44Z</time></trkpt>
<trkpt lat="46.21302" lon="7.4485"><ele>1752.2</ele><time>2016-06-07T16:34:17Z</time></trkpt>
<trkpt lat="46.21285" lon="7.44864"><ele>1752.6</ele><time>2016-06-07T16:34:22Z</time></trkpt>
<trkpt lat="46.21282" lon="7.44866"><ele>1752.6</ele><time>2016-06-07T16:34:23Z</time></trkpt>
<trkpt lat="46.21274" lon="7.44873"><ele>1752.8</ele><time>2016-06-07T16:34:26Z</time></trkpt>
<trkpt lat="46.21268" lon="7.44882"><ele>1753.4</ele><time>2016-06-07T16:34:30Z</time></trkpt>
<trkpt lat="46.21267" lon="7.44883"><ele>1753.4</ele><time>2016-06-07T16:34:31Z</time></trkpt>
<trkpt lat="46.21247" lon="7.44892"><ele>1754.4</ele><time>2016-06-07T16:34:39Z</time></trkpt>
<trkpt lat="46.21238" lon="7.449"><ele>1755.6</ele><time>2016-06-07T16:34:42Z</time></trkpt>
<trkpt lat="46.21207" lon="7.44912"><ele>1761.6</ele><time>2016-06-07T16:34:53Z</time></trkpt>
<trkpt lat="46.21188" lon="7.44912"><ele>1765.8</ele><time>2016-06-07T16:34:59Z</time></trkpt>
<trkpt lat="46.21168" lon="7.44918"><ele>1766</ele><time>2016-06-07T16:35:05Z</time></trkpt>
<trkpt lat="46.21147" lon="7.44926"><ele>1761.2</ele><time>2016-06-07T16:35:11Z</time></trkpt>
<trkpt lat="46.21134" lon="7.44927"><ele>1760.4</ele><time>2016-06-07T16:35:14Z</time></trkpt>
<trkpt lat="46.21115" lon="7.44936"><ele>1759.8</ele><time>2016-06-07T16:35:19Z</time></trkpt>
<trkpt lat="46.21103" lon="7.44946"><ele>1758.8</ele><time>2016-06-07T16:35:23Z</time></trkpt>
<trkpt lat="46.21084" lon="7.44953"><ele>1756.6</ele><time>2016-06-07T16:35:28Z</time></trkpt>
<trkpt lat="46.21065" lon="7.44966"><ele>1755</ele><time>2016-06-07T16:35:33Z</time></trkpt>
<trkpt lat="46.21051" lon="7.44974"><ele>1750.8</ele><time>2016-06-07T16:35:39Z</time></trkpt>
<trkpt lat="46.21037" lon="7.44975"><ele>1748.8</ele><time>2016-06-07T16:35:43Z</time></trkpt>
<trkpt lat="46.21021" lon="7.44973"><ele>1743.8</ele><time>2016-06-07T16:35:51Z</time></trkpt>
<trkpt lat="46.21004" lon="7.44958"><ele>1739.8</ele><time>2016-06-07T16:35:58Z</time></trkpt>
<trkpt lat="46.2099" lon="7.4494"><ele>1737</ele><time>2016-06-07T16:36:06Z</time></trkpt>
<trkpt lat="46.20971" lon="7.44934"><ele>1733.8</ele><time>2016-06-07T16:36:14Z</time></trkpt>
<trkpt lat="46.20967" lon="7.44934"><ele>1733</ele><time>2016-06-07T16:36:18Z</time></trkpt>
<trkpt lat="46.20961" lon="7.44931"><ele>1730.4</ele><time>2016-06-07T16:36:27Z</time></trkpt>
<trkpt lat="46.20959" lon="7.4493"><ele>1729.8</ele><time>2016-06-07T16:36:30Z</time></trkpt>
<trkpt lat="46.20955" lon="7.4493"><ele>1728.8</ele><time>2016-06-07T16:36:34Z</time></trkpt>
<trkpt lat="46.20946" lon="7.44921"><ele>1727.4</ele><time>2016-06-07T16:36:38Z</time></trkpt>
<trkpt lat="46.20929" lon="7.44906"><ele>1724.2</ele><time>2016-06-07T16:36:46Z</time></trkpt>
<trkpt lat="46.20909" lon="7.44896"><ele>1719.6</ele><time>2016-06-07T16:36:53Z</time></trkpt>
<trkpt lat="46.20891" lon="7.44888"><ele>1716.2</ele><time>2016-06-07T16:36:59Z</time></trkpt>
<trkpt lat="46.20887" lon="7.44887"><ele>1715.6</ele><time>2016-06-07T16:37:00Z</time></trkpt>
<trkpt lat="46.20874" lon="7.44879"><ele>1713.2</ele><time>2016-06-07T16:37:05Z</time></trkpt>
<trkpt lat="46.20864" lon="7.44875"><ele>1710.8</ele><time>2016-06-07T16:37:10Z</time></trkpt>
<trkpt lat="46.20845" lon="7.44872"><ele>1707.8</ele><time>2016-06-07T16:37:15Z</time></trkpt>
<trkpt lat="46.20837" lon="7.44871"><ele>1705.2</ele><time>2016-06-07T16:37:18Z</time></trkpt>
<trkpt lat="46.20822" lon="7.44884"><ele>1703</ele><time>2016-06-07T16:37:25Z</time></trkpt>
<trkpt lat="46.20811" lon="7.44882"><ele>1700.4</ele><time>2016-06-07T16:37:29Z</time></trkpt>
<trkpt lat="46.20803" lon="7.44863"><ele>1696.4</ele><time>2016-06-07T16:37:37Z</time></trkpt>
<trkpt lat="46.20804" lon="7.44855"><ele>1694.4</ele><time>2016-06-07T16:37:40Z</time></trkpt>
<trkpt lat="46.20803" lon="7.44848"><ele>1692.2</ele><time>2016-06-07T16:37:43Z</time></trkpt>
<trkpt lat="46.20794" lon="7.44838"><ele>1690.2</ele><time>2016-06-07T16:37:47Z</time></trkpt>
<trkpt lat="46.20806" lon="7.44823"><ele>1688.6</ele><time>2016-06-07T16:37:54Z</time></trkpt>
<trkpt lat="46.20827" lon="7.44814"><ele>1689.4</ele><time>2016-06-07T16:38:01Z</time></trkpt>
<trkpt lat="46.20848" lon="7.4481"><ele>1691.2</ele><time>2016-06-07T16:38:07Z</time></trkpt>
<trkpt lat="46.20857" lon="7.44808"><ele>1691.6</ele><time>2016-06-07T16:38:09Z</time></trkpt>
<trkpt lat="46.20861" lon="7.44807"><ele>1691.6</ele><time>2016-06-07T16:38:10Z</time></trkpt>
<trkpt lat="46.20874" lon="7.44801"><ele>1691.8</ele><time>2016-06-07T16:38:13Z</time></trkpt>
<trkpt lat="46.20879" lon="7.44798"><ele>1691.4</ele><time>2016-06-07T16:38:14Z</time></trkpt>
<trkpt lat="46.20883" lon="7.44795"><ele>1691.6</ele><time>2016-06-07T16:38:15Z</time></trkpt>
<trkpt lat="46.20898" lon="7.44788"><ele>1691.6</ele><time>2016-06-07T16:38:18Z</time></trkpt>
<trkpt lat="46.20914" lon="7.44785"><ele>1692.8</ele><time>2016-06-07T16:38:21Z</time></trkpt>
<trkpt lat="46.20939" lon="7.44786"><ele>1692.6</ele><time>2016-06-07T16:38:25Z</time></trkpt>
<trkpt lat="46.20945" lon="7.44785"><ele>1692.6</ele><time>2016-06-07T16:38:26Z</time></trkpt>
<trkpt lat="46.20959" lon="7.44781"><ele>1692.4</ele><time>2016-06-07T16:38:28Z</time></trkpt>
<trkpt lat="46.20972" lon="7.44775"><ele>1691.4</ele><time>2016-06-07T16:38:30Z</time></trkpt>
<trkpt lat="46.20985" lon="7.44764"><ele>1689.6</ele><time>2016-06-07T16:38:32Z</time></trkpt>
<trkpt lat="46.20995" lon="7.44748"><ele>1687.4</ele><time>2016-06-07T16:38:34Z</time></trkpt>
<trkpt lat="46.21004" lon="7.44732"><ele>1686</ele><time>2016-06-07T16:38:36Z</time></trkpt>
<trkpt lat="46.21018" lon="7.4471"><ele>1683</ele><time>2016-06-07T16:38:39Z</time></trkpt>
<trkpt lat="46.21033" lon="7.44693"><ele>1681</ele><time>2016-06-07T16:38:42Z</time></trkpt>
<trkpt lat="46.21054" lon="7.4468"><ele>1679.4</ele><time>2016-06-07T16:38:46Z</time></trkpt>
<trkpt lat="46.21073" lon="7.44669"><ele>1676.6</ele><time>2016-06-07T16:38:49Z</time></trkpt>
<trkpt lat="46.21079" lon="7.44664"><ele>1674.6</ele><time>2016-06-07T16:38:50Z</time></trkpt>
<trkpt lat="46.21093" lon="7.44643"><ele>1670.6</ele><time>2016-06-07T16:38:53Z</time></trkpt>
<trkpt lat="46.21097" lon="7.44634"><ele>1669.4</ele><time>2016-06-07T16:38:54Z</time></trkpt>
<trkpt lat="46.21107" lon="7.44604"><ele>1665.4</ele><time>2016-06-07T16:38:57Z</time></trkpt>
<trkpt lat="46.21116" lon="7.44585"><ele>1661.8</ele><time>2016-06-07T16:38:59Z</time></trkpt>
<trkpt lat="46.2113" lon="7.44562"><ele>1658.8</ele><time>2016-06-07T16:39:02Z</time></trkpt>
<trkpt lat="46.21137" lon="7.44554"><ele>1657.2</ele><time>2016-06-07T16:39:04Z</time></trkpt>
<trkpt lat="46.21144" lon="7.44548"><ele>1656.6</ele><time>2016-06-07T16:39:08Z</time></trkpt>
<trkpt lat="46.21147" lon="7.44546"><ele>1656</ele><time>2016-06-07T16:39:10Z</time></trkpt>
<trkpt lat="46.2115" lon="7.44542"><ele>1655.2</ele><time>2016-06-07T16:39:12Z</time></trkpt>
<trkpt lat="46.21152" lon="7.4454"><ele>1654.8</ele><time>2016-06-07T16:39:13Z</time></trkpt>
<trkpt lat="46.21154" lon="7.44537"><ele>1654.8</ele><time>2016-06-07T16:39:14Z</time></trkpt>
<trkpt lat="46.21168" lon="7.44521"><ele>1655.6</ele><time>2016-06-07T16:39:20Z</time></trkpt>
<trkpt lat="46.21167" lon="7.44517"><ele>1656.2</ele><time>2016-06-07T16:39:21Z</time></trkpt>
<trkpt lat="46.21163" lon="7.44514"><ele>1655.8</ele><time>2016-06-07T16:39:22Z</time></trkpt>
<trkpt lat="46.2115" lon="7.44515"><ele>1654.8</ele><time>2016-06-07T16:39:25Z</time></trkpt>
<trkpt lat="46.21136" lon="7.44518"><ele>1653.8</ele><time>2016-06-07T16:39:27Z</time></trkpt>
<trkpt lat="46.21113" lon="7.44522"><ele>1652.2</ele><time>2016-06-07T16:39:30Z</time></trkpt>
<trkpt lat="46.21087" lon="7.44532"><ele>1650.2</ele><time>2016-06-07T16:39:33Z</time></trkpt>
<trkpt lat="46.2107" lon="7.44541"><ele>1649</ele><time>2016-06-07T16:39:35Z</time></trkpt>
<trkpt lat="46.21046" lon="7.44554"><ele>1647.4</ele><time>2016-06-07T16:39:38Z</time></trkpt>
<trkpt lat="46.21022" lon="7.44566"><ele>1645.4</ele><time>2016-06-07T16:39:41Z</time></trkpt>
<trkpt lat="46.20998" lon="7.44576"><ele>1643</ele><time>2016-06-07T16:39:44Z</time></trkpt>
<trkpt lat="46.20974" lon="7.44587"><ele>1641.2</ele><time>2016-06-07T16:39:47Z</time></trkpt>
<trkpt lat="46.20948" lon="7.446"><ele>1639.2</ele><time>2016-06-07T16:39:50Z</time></trkpt>
<trkpt lat="46.2093" lon="7.44607"><ele>1638.2</ele><time>2016-06-07T16:39:52Z</time></trkpt>
<trkpt lat="46.20904" lon="7.44604"><ele>1635.4</ele><time>2016-06-07T16:39:55Z</time></trkpt>
<trkpt lat="46.2088" lon="7.4459"><ele>1631.4</ele><time>2016-06-07T16:39:58Z</time></trkpt>
<trkpt lat="46.20862" lon="7.44579"><ele>1628.6</ele><time>2016-06-07T16:40:00Z</time></trkpt>
<trkpt lat="46.20844" lon="7.44564"><ele>1625.8</ele><time>2016-06-07T16:40:02Z</time></trkpt>
<trkpt lat="46.20823" lon="7.44549"><ele>1624.2</ele><time>2016-06-07T16:40:04Z</time></trkpt>
<trkpt lat="46.20802" lon="7.44532"><ele>1622.2</ele><time>2016-06-07T16:40:06Z</time></trkpt>
<trkpt lat="46.20782" lon="7.44517"><ele>1620</ele><time>2016-06-07T16:40:08Z</time></trkpt>
<trkpt lat="46.20761" lon="7.44504"><ele>1617</ele><time>2016-06-07T16:40:10Z</time></trkpt>
<trkpt lat="46.20752" lon="7.44497"><ele>1615.8</ele><time>2016-06-07T16:40:11Z</time></trkpt>
<trkpt lat="46.20736" lon="7.4448"><ele>1613.8</ele><time>2016-06-07T16:40:13Z</time></trkpt>
<trkpt lat="46.20729" lon="7.4447"><ele>1612.6</ele><time>2016-06-07T16:40:14Z</time></trkpt>
<trkpt lat="46.20717" lon="7.44449"><ele>1610.6</ele><time>2016-06-07T16:40:16Z</time></trkpt>
<trkpt lat="46.20706" lon="7.44425"><ele>1608.6</ele><time>2016-06-07T16:40:18Z</time></trkpt>
<trkpt lat="46.20691" lon="7.44403"><ele>1607</ele><time>2016-06-07T16:40:20Z</time></trkpt>
<trkpt lat="46.20673" lon="7.44382"><ele>1605.2</ele><time>2016-06-07T16:40:22Z</time></trkpt>
<trkpt lat="46.20653" lon="7.44363"><ele>1603.2</ele><time>2016-06-07T16:40:24Z</time></trkpt>
<trkpt lat="46.20632" lon="7.44348"><ele>1601.4</ele><time>2016-06-07T16:40:26Z</time></trkpt>
<trkpt lat="46.20622" lon="7.4434"><ele>1600.6</ele><time>2016-06-07T16:40:27Z</time></trkpt>
<trkpt lat="46.20613" lon="7.44331"><ele>1599.4</ele><time>2016-06-07T16:40:28Z</time></trkpt>
<trkpt lat="46.20599" lon="7.4431"><ele>1596.6</ele><time>2016-06-07T16:40:30Z</time></trkpt>
<trkpt lat="46.20587" lon="7.44289"><ele>1593.8</ele><time>2016-06-07T16:40:32Z</time></trkpt>
<trkpt lat="46.20582" lon="7.44276"><ele>1592.8</ele><time>2016-06-07T16:40:33Z</time></trkpt>
<trkpt lat="46.20575" lon="7.44247"><ele>1590.6</ele><time>2016-06-07T16:40:35Z</time></trkpt>
<trkpt lat="46.20572" lon="7.44216"><ele>1588.2</ele><time>2016-06-07T16:40:37Z</time></trkpt>
<trkpt lat="46.2057" lon="7.44186"><ele>1585.8</ele><time>2016-06-07T16:40:39Z</time></trkpt>
<trkpt lat="46.20567" lon="7.44156"><ele>1582.8</ele><time>2016-06-07T16:40:41Z</time></trkpt>
<trkpt lat="46.20565" lon="7.44142"><ele>1581.6</ele><time>2016-06-07T16:40:42Z</time></trkpt>
<trkpt lat="46.20558" lon="7.44116"><ele>1579.4</ele><time>2016-06-07T16:40:44Z</time></trkpt>
<trkpt lat="46.20552" lon="7.44103"><ele>1578.2</ele><time>2016-06-07T16:40:45Z</time></trkpt>
<trkpt lat="46.20537" lon="7.44079"><ele>1576</ele><time>2016-06-07T16:40:47Z</time></trkpt>
<trkpt lat="46.20519" lon="7.44059"><ele>1574</ele><time>2016-06-07T16:40:49Z</time></trkpt>
<trkpt lat="46.20509" lon="7.44049"><ele>1572.6</ele><time>2016-06-07T16:40:50Z</time></trkpt>
<trkpt lat="46.20489" lon="7.4403"><ele>1570</ele><time>2016-06-07T16:40:52Z</time></trkpt>
<trkpt lat="46.20469" lon="7.44009"><ele>1567.4</ele><time>2016-06-07T16:40:54Z</time></trkpt>
<trkpt lat="46.20451" lon="7.43991"><ele>1565.2</ele><time>2016-06-07T16:40:56Z</time></trkpt>
<trkpt lat="46.20437" lon="7.43977"><ele>1563.8</ele><time>2016-06-07T16:40:58Z</time></trkpt>
<trkpt lat="46.20439" lon="7.43956"><ele>1560.6</ele><time>2016-06-07T16:41:02Z</time></trkpt>
<trkpt lat="46.20458" lon="7.43969"><ele>1558.4</ele><time>2016-06-07T16:41:06Z</time></trkpt>
<trkpt lat="46.20464" lon="7.43973"><ele>1558.4</ele><time>2016-06-07T16:41:07Z</time></trkpt>
<trkpt lat="46.20486" lon="7.43984"><ele>1558</ele><time>2016-06-07T16:41:10Z</time></trkpt>
<trkpt lat="46.20501" lon="7.4399"><ele>1557.4</ele><time>2016-06-07T16:41:12Z</time></trkpt>
<trkpt lat="46.20509" lon="7.43994"><ele>1557.2</ele><time>2016-06-07T16:41:13Z</time></trkpt>
<trkpt lat="46.20532" lon="7.44011"><ele>1554.8</ele><time>2016-06-07T16:41:16Z</time></trkpt>
<trkpt lat="46.2054" lon="7.44016"><ele>1553.8</ele><time>2016-06-07T16:41:17Z</time></trkpt>
<trkpt lat="46.20561" lon="7.44029"><ele>1552.4</ele><time>2016-06-07T16:41:20Z</time></trkpt>
<trkpt lat="46.20568" lon="7.44032"><ele>1551.4</ele><time>2016-06-07T16:41:22Z</time></trkpt>
<trkpt lat="46.20572" lon="7.44025"><ele>1549.8</ele><time>2016-06-07T16:41:26Z</time></trkpt>
<trkpt lat="46.2057" lon="7.44019"><ele>1548.6</ele><time>2016-06-07T16:41:28Z</time></trkpt>
<trkpt lat="46.20568" lon="7.44016"><ele>1547.8</ele><time>2016-06-07T16:41:29Z</time></trkpt>
<trkpt lat="46.2056" lon="7.43995"><ele>1542.6</ele><time>2016-06-07T16:41:34Z</time></trkpt>
<trkpt lat="46.20559" lon="7.43991"><ele>1541.8</ele><time>2016-06-07T16:41:35Z</time></trkpt>
<trkpt lat="46.20561" lon="7.43976"><ele>1535.8</ele><time>2016-06-07T16:41:43Z</time></trkpt>
<trkpt lat="46.20566" lon="7.43972"><ele>1533.8</ele><time>2016-06-07T16:41:45Z</time></trkpt>
<trkpt lat="46.20576" lon="7.43963"><ele>1530.2</ele><time>2016-06-07T16:41:50Z</time></trkpt>
<trkpt lat="46.20587" lon="7.4396"><ele>1527</ele><time>2016-06-07T16:41:55Z</time></trkpt>
<trkpt lat="46.20593" lon="7.43959"><ele>1526.2</ele><time>2016-06-07T16:41:57Z</time></trkpt>
<trkpt lat="46.20596" lon="7.43958"><ele>1526</ele><time>2016-06-07T16:41:58Z</time></trkpt>
<trkpt lat="46.20598" lon="7.43957"><ele>1525.2</ele><time>2016-06-07T16:41:59Z</time></trkpt>
<trkpt lat="46.20618" lon="7.43955"><ele>1522.8</ele><time>2016-06-07T16:42:07Z</time></trkpt>
<trkpt lat="46.2062" lon="7.43955"><ele>1522.4</ele><time>2016-06-07T16:42:08Z</time></trkpt>
<trkpt lat="46.20633" lon="7.43956"><ele>1517.8</ele><time>2016-06-07T16:42:13Z</time></trkpt>
<trkpt lat="46.20635" lon="7.43957"><ele>1517</ele><time>2016-06-07T16:42:14Z</time></trkpt>
<trkpt lat="46.20641" lon="7.4396"><ele>1515.2</ele><time>2016-06-07T16:42:16Z</time></trkpt>
<trkpt lat="46.20646" lon="7.43963"><ele>1512.8</ele><time>2016-06-07T16:42:18Z</time></trkpt>
<trkpt lat="46.20659" lon="7.43969"><ele>1508.8</ele><time>2016-06-07T16:42:22Z</time></trkpt>
<trkpt lat="46.20662" lon="7.43971"><ele>1507.8</ele><time>2016-06-07T16:42:23Z</time></trkpt>
<trkpt lat="46.20666" lon="7.43973"><ele>1505.8</ele><time>2016-06-07T16:42:25Z</time></trkpt>
<trkpt lat="46.20668" lon="7.43971"><ele>1503.8</ele><time>2016-06-07T16:42:27Z</time></trkpt>
<trkpt lat="46.20668" lon="7.43969"><ele>1503</ele><time>2016-06-07T16:42:28Z</time></trkpt>
<trkpt lat="46.20667" lon="7.43966"><ele>1502.4</ele><time>2016-06-07T16:42:29Z</time></trkpt>
<trkpt lat="46.20666" lon="7.43963"><ele>1503</ele><time>2016-06-07T16:42:43Z</time></trkpt>
<trkpt lat="46.20671" lon="7.43962"><ele>1503.6</ele><time>2016-06-07T16:42:55Z</time></trkpt>
<trkpt lat="46.20671" lon="7.43963"><ele>1503.4</ele><time>2016-06-07T16:42:57Z</time></trkpt>
<trkpt lat="46.2067" lon="7.43962"><ele>1504</ele><time>2016-06-07T16:43:06Z</time></trkpt>
<trkpt lat="46.20669" lon="7.43962"><ele>1504</ele><time>2016-06-07T16:43:12Z</time></trkpt>
<trkpt lat="46.20669" lon="7.43962"><ele>1504</ele><time>2016-06-07T16:43:13Z</time></trkpt>
</trkseg></trk></gpx>